Time;durP1;ratioP1;P1;durP2;ratioP2;P2;SDS_P1;SDS_P2;PMS_P1;PMS_P2;Temp;Humidity;BMP_temperature;BMP_pressure;BME280_temperature;BME280_humidity;BME280_pressure;Samples;Min_cycle;Max_cycle;Signal;HPM_P1;HPM_P2
2021/09/15 00:01:44;;;;;;;;;;;;;;;20.12;69.89;100774.69;5056801;28;910;-58
2021/09/15 00:04:10;;;;;;;;;;;;;;;20.12;70.20;100777.38;5056624;28;886;-58
2021/09/15 00:06:35;;;;;;;;;;;;;;;20.12;69.79;100771.97;5063027;28;1890;-58
2021/09/15 00:09:00;;;;;;;;;;;;;;;20.12;69.41;100774.69;5074614;28;1674;-58
2021/09/15 00:11:26;;;;;;;;;;;;;;;20.12;70.20;100766.56;5075439;28;802;-59
2021/09/15 00:13:51;;;;;;;;;;;;;;;20.11;69.06;100770.28;5075383;28;850;-57
2021/09/15 00:16:16;;;;;;;;;;;;;;;20.11;69.52;100771.13;5069750;28;1752;-57
2021/09/15 00:18:41;;;;;;;;;;;;;;;20.12;69.86;100774.69;5055516;28;1893;-57
2021/09/15 00:21:06;;;;;;;;;;;;;;;20.11;69.87;100770.28;5055411;28;851;-57
2021/09/15 00:23:31;;;;;;;;;;;;;;;20.11;69.71;100772.97;5055361;28;1068;-58
2021/09/15 00:25:56;;;;;;;;;;;;;;;20.11;69.35;100770.28;5056154;28;1895;-58
2021/09/15 00:28:21;;;;;;;;;;;;;;;20.11;69.54;100764.84;5075928;28;865;-58
2021/09/15 00:30:46;;;;;;;;;;;;;;;20.10;70.25;100765.88;5075576;28;1373;-58
2021/09/15 00:33:11;;;;;;;;;;;;;;;20.10;70.39;100769.41;5076133;28;895;-58
2021/09/15 00:35:36;;;;;;;;;;;;;;;20.10;69.85;100768.56;5064703;28;1897;-59
2021/09/15 00:38:02;;;;;;;;;;;;;;;20.10;69.61;100777.53;5056102;28;894;-58
2021/09/15 00:40:27;;;;;;;;;;;;;;;20.10;70.13;100776.69;5055857;28;1893;-58
2021/09/15 00:42:52;;;;;;;;;;;;;;;20.09;70.05;100773.13;5055581;28;918;-58
2021/09/15 00:45:17;;;;;;;;;;;;;;;20.09;69.02;100778.56;5063599;28;1840;-58
2021/09/15 00:47:42;;;;;;;;;;;;;;;20.09;69.69;100770.44;5075990;28;897;-58
2021/09/15 00:50:07;;;;;;;;;;;;;;;20.09;70.02;100772.28;5075513;28;886;-58
2021/09/15 00:52:32;;;;;;;;;;;;;;;20.09;70.12;100772.28;5075706;28;929;-58
2021/09/15 00:54:57;;;;;;;;;;;;;;;20.09;69.68;100773.13;5070351;28;1835;-58
2021/09/15 00:57:22;;;;;;;;;;;;;;;20.08;69.73;100770.59;5055322;28;1022;-58
2021/09/15 00:59:47;;;;;;;;;;;;;;;20.09;69.42;100761.47;5056002;28;1988;-58
2021/09/15 01:02:13;;;;;;;;;;;;;;;20.08;69.44;100759.78;5055348;28;940;-58
2021/09/15 01:04:38;;;;;;;;;;;;;;;20.08;69.97;100765.19;5060054;28;1833;-58
2021/09/15 01:07:03;;;;;;;;;;;;;;;20.08;69.76;100763.31;5075638;28;1009;-58
2021/09/15 01:09:28;;;;;;;;;;;;;;;20.07;70.33;100767.03;5075146;28;964;-59
2021/09/15 01:11:53;;;;;;;;;;;;;;;20.08;69.88;100759.78;5075120;28;832;-58
2021/09/15 01:14:18;;;;;;;;;;;;;;;20.06;69.55;100756.41;5060179;28;1849;-58
2021/09/15 01:16:43;;;;;;;;;;;;;;;20.08;69.77;100759.78;5075176;28;1845;-58
2021/09/15 01:19:08;;;;;;;;;;;;;;;20.07;69.78;100758.91;5075368;28;1894;-58
2021/09/15 01:21:33;;;;;;;;;;;;;;;20.08;69.93;100770.59;5075193;28;1016;-58
2021/09/15 01:23:58;;;;;;;;;;;;;;;20.06;69.95;100759.94;5056891;28;1932;-58
2021/09/15 01:26:23;;;;;;;;;;;;;;;20.07;69.60;100760.78;5075003;28;1071;-59
2021/09/15 01:28:48;;;;;;;;;;;;;;;20.06;70.50;100761.81;5074902;28;901;-59
2021/09/15 01:31:13;;;;;;;;;;;;;;;20.07;70.16;100763.47;5075309;28;877;-58
2021/09/15 01:33:38;;;;;;;;;;;;;;;20.06;69.74;100756.41;5074277;28;1750;-58
2021/09/15 01:36:03;;;;;;;;;;;;;;;20.05;69.89;100754.72;5075168;28;945;-59
2021/09/15 01:38:28;;;;;;;;;;;;;;;20.06;69.76;100764.53;5075178;28;1961;-57
2021/09/15 01:40:54;;;;;;;;;;;;;;;20.05;70.13;100757.41;5075265;28;1103;-60
2021/09/15 01:43:19;;;;;;;;;;;;;;;20.05;70.42;100750.16;5074359;28;1840;-60
2021/09/15 01:45:44;;;;;;;;;;;;;;;20.05;69.88;100750.16;5074980;28;1005;-59
2021/09/15 01:48:09;;;;;;;;;;;;;;;20.05;70.00;100749.31;5073474;28;1833;-59
2021/09/15 01:50:34;;;;;;;;;;;;;;;20.05;69.87;100754.72;5075624;28;826;-59
2021/09/15 01:52:59;;;;;;;;;;;;;;;20.05;70.69;100754.72;5074709;28;1584;-59
2021/09/15 01:55:24;;;;;;;;;;;;;;;20.05;69.81;100754.72;5074943;28;779;-59
2021/09/15 01:57:49;;;;;;;;;;;;;;;20.05;70.37;100754.72;5074749;28;1415;-56
2021/09/15 02:00:14;;;;;;;;;;;;;;;20.04;69.77;100747.59;5074554;28;1990;-57
2021/09/15 02:02:39;;;;;;;;;;;;;;;20.04;69.78;100748.44;5074055;28;1908;-55
2021/09/15 02:05:04;;;;;;;;;;;;;;;20.03;69.64;100741.34;5074959;28;1080;-56
2021/09/15 02:07:29;;;;;;;;;;;;;;;20.03;69.56;100738.63;5074691;28;948;-53
2021/09/15 02:09:55;;;;;;;;;;;;;;;20.02;70.59;100727.97;5056544;28;1049;-55
2021/09/15 02:12:20;;;;;;;;;;;;;;;20.03;70.41;100730.53;5071606;28;1682;-57
2021/09/15 02:14:45;;;;;;;;;;;;;;;20.03;69.84;100721.56;5054059;28;799;-58
2021/09/15 02:17:10;;;;;;;;;;;;;;;20.01;70.81;100716.31;5054923;28;1704;-57
2021/09/15 02:19:35;;;;;;;;;;;;;;;20.03;70.37;100721.56;5074717;28;1902;-55
2021/09/15 02:22:00;;;;;;;;;;;;;;;20.01;70.13;100715.47;5074140;28;1653;-56
2021/09/15 02:24:25;;;;;;;;;;;;;;;20.02;69.49;100720.72;5074767;28;1943;-56
2021/09/15 02:26:51;;;;;;;;;;;;;;;20.01;70.05;100718.16;5074663;28;811;-57
2021/09/15 02:29:16;;;;;;;;;;;;;;;20.00;69.92;100717.31;5074695;28;1048;-56
2021/09/15 02:31:41;;;;;;;;;;;;;;;20.00;70.11;100720.03;5076058;28;815;-56
2021/09/15 02:34:06;;;;;;;;;;;;;;;20.00;70.11;100719.19;5077740;28;1978;-55
2021/09/15 02:36:31;;;;;;;;;;;;;;;19.99;70.47;100717.47;5078074;28;949;-58
2021/09/15 02:38:56;;;;;;;;;;;;;;;20.00;71.13;100722.72;5078077;28;1914;-58
2021/09/15 02:41:21;;;;;;;;;;;;;;;19.98;70.26;100722.03;5078027;28;842;-58
2021/09/15 02:43:46;;;;;;;;;;;;;;;19.99;70.24;100726.44;5063433;28;1867;-57
2021/09/15 02:46:11;;;;;;;;;;;;;;;19.99;70.35;100725.59;5058008;28;1017;-57
2021/09/15 02:48:37;;;;;;;;;;;;;;;19.98;70.33;100713.94;5058019;28;1072;-56
2021/09/15 02:51:02;;;;;;;;;;;;;;;19.98;70.46;100716.63;5058308;28;828;-57
2021/09/15 02:53:27;;;;;;;;;;;;;;;19.99;69.72;100712.06;5069320;28;1805;-58
2021/09/15 02:55:52;;;;;;;;;;;;;;;19.98;70.02;100722.03;5077786;28;1004;-58
2021/09/15 02:58:17;;;;;;;;;;;;;;;19.97;70.51;100708.69;5077860;28;1914;-58
2021/09/15 03:00:42;;;;;;;;;;;;;;;19.97;70.30;100714.09;5077921;28;854;-58
2021/09/15 03:03:07;;;;;;;;;;;;;;;19.97;70.31;100709.53;5077373;28;1808;-58
2021/09/15 03:05:32;;;;;;;;;;;;;;;19.96;70.68;100706.97;5078014;28;1534;-58
2021/09/15 03:07:57;;;;;;;;;;;;;;;19.96;69.84;100718.66;5077694;28;1026;-58
2021/09/15 03:10:22;;;;;;;;;;;;;;;19.96;70.77;100707.84;5077614;28;1048;-58
2021/09/15 03:12:47;;;;;;;;;;;;;;;19.95;69.98;100710.69;5058477;28;1822;-58
2021/09/15 03:15:13;;;;;;;;;;;;;;;19.95;70.55;100714.25;5057929;28;1695;-59
2021/09/15 03:17:38;;;;;;;;;;;;;;;19.96;70.59;100709.69;5057472;28;783;-59
2021/09/15 03:20:03;;;;;;;;;;;;;;;19.95;70.45;100710.69;5057631;28;1890;-59
2021/09/15 03:22:28;;;;;;;;;;;;;;;19.94;69.99;100704.44;5073033;28;1879;-59
2021/09/15 03:24:53;;;;;;;;;;;;;;;19.94;70.06;100700.88;5077322;28;1764;-58
2021/09/15 03:27:18;;;;;;;;;;;;;;;19.94;70.06;100704.44;5077122;28;996;-58
2021/09/15 03:29:43;;;;;;;;;;;;;;;19.93;70.43;100688.38;5077451;28;960;-58
2021/09/15 03:32:08;;;;;;;;;;;;;;;19.92;70.14;100690.22;5061645;28;1740;-58
2021/09/15 03:34:33;;;;;;;;;;;;;;;19.92;70.13;100692.94;5057295;28;795;-58
2021/09/15 03:36:59;;;;;;;;;;;;;;;19.93;70.66;100694.63;5057034;28;854;-58
2021/09/15 03:39:24;;;;;;;;;;;;;;;19.92;69.90;100687.53;5057372;28;1894;-57
2021/09/15 03:41:49;;;;;;;;;;;;;;;19.92;70.27;100689.38;5057140;28;1790;-57
2021/09/15 03:44:14;;;;;;;;;;;;;;;19.92;70.67;100689.38;5056948;28;1046;-58
2021/09/15 03:46:39;;;;;;;;;;;;;;;19.91;70.59;100687.69;5057009;28;799;-57
2021/09/15 03:49:04;;;;;;;;;;;;;;;19.92;70.20;100690.22;5058631;28;1893;-58
2021/09/15 03:51:29;;;;;;;;;;;;;;;19.91;69.92;100693.94;5076784;28;1543;-56
2021/09/15 03:53:54;;;;;;;;;;;;;;;19.91;69.76;100687.69;5076620;28;939;-56
2021/09/15 03:56:19;;;;;;;;;;;;;;;19.91;70.24;100687.69;5077288;28;1036;-56
2021/09/15 03:58:45;;;;;;;;;;;;;;;19.91;70.88;100687.69;5076213;28;1914;-58
2021/09/15 04:01:10;;;;;;;;;;;;;;;19.90;70.16;100697.66;5075412;28;1901;-58
2021/09/15 04:03:35;;;;;;;;;;;;;;;19.90;70.67;100696.81;5076189;28;808;-58
2021/09/15 04:06:00;;;;;;;;;;;;;;;19.89;70.57;100690.56;5076523;28;1682;-56
2021/09/15 04:08:25;;;;;;;;;;;;;;;19.90;70.48;100691.41;5066987;28;1814;-57
2021/09/15 04:10:50;;;;;;;;;;;;;;;19.90;70.62;100686.00;5055664;28;823;-57
2021/09/15 04:13:15;;;;;;;;;;;;;;;19.89;70.79;100689.69;5055442;28;808;-57
2021/09/15 04:15:40;;;;;;;;;;;;;;;19.90;70.87;100688.69;5054106;28;1065;-57
2021/09/15 04:18:05;;;;;;;;;;;;;;;19.90;70.20;100691.41;5062025;28;1760;-55
2021/09/15 04:20:30;;;;;;;;;;;;;;;19.89;70.87;100689.69;5064133;28;1963;-52
2021/09/15 04:22:56;;;;;;;;;;;;;;;19.89;70.66;100697.81;5055481;28;1654;-56
2021/09/15 04:33:32;;;;;;;;;;;;;;;19.87;70.24;100697.16;5056284;28;806;-58
2021/09/15 04:35:57;;;;;;;;;;;;;;;19.88;70.30;100699.72;5055760;28;973;-58
2021/09/15 04:38:22;;;;;;;;;;;;;;;19.87;70.29;100692.59;5066351;28;1893;-56
2021/09/15 04:40:47;;;;;;;;;;;;;;;19.87;70.29;100698.00;5075650;28;1021;-57
2021/09/15 04:43:12;;;;;;;;;;;;;;;19.87;70.42;100687.19;5075372;28;1021;-57
2021/09/15 04:45:37;;;;;;;;;;;;;;;19.87;70.27;100687.19;5073354;28;1579;-54
2021/09/15 04:48:02;;;;;;;;;;;;;;;19.87;70.74;100691.75;5055296;28;962;-54
2021/09/15 04:50:27;;;;;;;;;;;;;;;19.87;70.94;100691.75;5055288;28;894;-56
2021/09/15 04:52:53;;;;;;;;;;;;;;;19.86;70.69;100688.19;5055181;28;997;-57
2021/09/15 04:55:18;;;;;;;;;;;;;;;19.86;70.82;100685.50;5036830;28;936;-58
2021/09/15 04:57:43;;;;;;;;;;;;;;;19.86;70.81;100690.06;5055928;28;1709;-58
2021/09/15 05:00:08;;;;;;;;;;;;;;;19.86;70.08;100685.50;5056444;28;1967;-58
2021/09/15 05:02:33;;;;;;;;;;;;;;;19.87;70.87;100691.75;5054940;28;961;-58
2021/09/15 05:04:58;;;;;;;;;;;;;;;19.86;70.76;100690.91;5054745;28;905;-57
2021/09/15 05:07:23;;;;;;;;;;;;;;;19.86;70.38;100690.06;5055251;28;1820;-59
2021/09/15 05:09:48;;;;;;;;;;;;;;;19.86;70.20;100684.66;5036860;28;1241;-58
2021/09/15 05:12:13;;;;;;;;;;;;;;;19.86;70.17;100681.94;5054840;28;887;-58
2021/09/15 05:14:38;;;;;;;;;;;;;;;19.86;70.28;100696.31;5057734;28;1346;-58
2021/09/15 05:17:03;;;;;;;;;;;;;;;19.88;70.56;100693.44;5063289;28;1469;-59
2021/09/15 05:19:28;;;;;;;;;;;;;;;19.86;70.47;100690.06;5061169;28;1903;-58
2021/09/15 05:21:54;;;;;;;;;;;;;;;19.87;70.52;100689.91;5063882;28;1274;-59
2021/09/15 05:24:19;;;;;;;;;;;;;;;19.88;70.79;100688.03;5066580;28;1650;-58
2021/09/15 05:26:44;;;;;;;;;;;;;;;19.91;73.19;100695.81;5064667;28;1224;-58
2021/09/15 05:29:09;;;;;;;;;;;;;;;19.95;72.82;100700.72;5064015;28;1439;-58
2021/09/15 05:31:34;;;;;;;;;;;;;;;19.96;72.33;100690.75;5066214;28;1405;-60
2021/09/15 05:33:59;;;;;;;;;;;;;;;19.96;71.91;100702.41;5063851;28;1776;-60
2021/09/15 05:36:24;;;;;;;;;;;;;;;19.96;71.90;100691.59;5055072;28;1681;-60
2021/09/15 05:38:49;;;;;;;;;;;;;;;19.97;72.41;100697.84;5054504;28;1898;-60
2021/09/15 05:41:14;;;;;;;;;;;;;;;19.96;72.14;100696.16;5054355;28;1064;-60
2021/09/15 05:43:39;;;;;;;;;;;;;;;19.95;72.33;100692.59;5056086;28;1623;-59
2021/09/15 05:46:04;;;;;;;;;;;;;;;19.94;72.76;100690.91;5063576;28;1459;-60
2021/09/15 05:48:29;;;;;;;;;;;;;;;19.94;72.72;100698.19;5067717;28;1737;-59
2021/09/15 05:50:54;;;;;;;;;;;;;;;19.94;72.68;100695.47;5055033;28;1452;-59
2021/09/15 05:53:19;;;;;;;;;;;;;;;19.93;72.89;100697.34;5065535;28;1627;-60
2021/09/15 05:55:45;;;;;;;;;;;;;;;19.94;72.56;100695.47;5054549;28;1704;-60
2021/09/15 05:58:10;;;;;;;;;;;;;;;19.93;73.16;100680.25;5054496;28;1120;-60
2021/09/15 06:00:35;;;;;;;;;;;;;;;19.95;73.25;100697.19;5062581;28;1973;-60
2021/09/15 06:03:00;;;;;;;;;;;;;;;19.94;72.78;100696.31;5054886;28;1786;-59
2021/09/15 06:05:25;;;;;;;;;;;;;;;19.93;72.97;100686.50;5063752;28;1441;-59
2021/09/15 06:07:50;;;;;;;;;;;;;;;19.93;73.16;100701.91;5075070;28;1318;-59
2021/09/15 06:10:15;;;;;;;;;;;;;;;19.93;72.96;100699.19;5078171;28;1017;-60
2021/09/15 06:12:40;;;;;;;;;;;;;;;19.93;72.21;100700.03;5078525;28;1794;-59
2021/09/15 06:15:06;;;;;;;;;;;;;;;19.94;72.12;100700.88;5078850;28;906;-60
2021/09/15 06:17:31;;;;;;;;;;;;;;;19.92;72.16;100702.91;5078526;28;1621;-60
2021/09/15 06:19:56;;;;;;;;;;;;;;;19.92;72.20;100711.03;5078408;28;1894;-60
2021/09/15 06:22:21;;;;;;;;;;;;;;;19.91;72.65;100703.91;5078445;28;1895;-60
2021/09/15 06:24:48;;;;;;;;;;;;;;;19.90;72.67;100704.91;5078010;28;1191;-59
2021/09/15 06:27:16;;;;;;;;;;;;;;;19.89;72.64;100709.47;5077965;28;795;-60
2021/09/15 06:29:42;;;;;;;;;;;;;;;19.89;72.68;100711.34;5078067;28;862;-59
2021/09/15 06:32:07;;;;;;;;;;;;;;;19.90;71.99;100713.03;5073975;28;1632;-60
2021/09/15 06:34:32;;;;;;;;;;;;;;;19.87;72.13;100714.22;5057793;28;1065;-59
2021/09/15 06:36:57;;;;;;;;;;;;;;;19.88;72.38;100712.38;5057739;28;882;-60
2021/09/15 06:39:22;;;;;;;;;;;;;;;19.87;71.78;100716.09;5057713;28;1913;-59
2021/09/15 06:41:47;;;;;;;;;;;;;;;19.87;71.57;100713.38;5071180;28;1570;-60
2021/09/15 06:44:12;;;;;;;;;;;;;;;19.87;72.33;100714.22;5077589;28;1532;-60
2021/09/15 06:46:37;;;;;;;;;;;;;;;19.87;72.05;100718.78;5072138;28;1280;-60
2021/09/15 06:49:02;;;;;;;;;;;;;;;19.85;72.29;100718.97;5067936;28;1382;-60
2021/09/15 06:51:27;;;;;;;;;;;;;;;19.86;72.57;100722.50;5066703;28;1421;-59
2021/09/15 06:53:52;;;;;;;;;;;;;;;19.86;71.90;100720.66;5064809;28;1362;-60
2021/09/15 06:56:17;;;;;;;;;;;;;;;19.86;71.79;100719.81;5065749;28;1360;-59
2021/09/15 06:58:43;;;;;;;;;;;;;;;19.87;72.00;100721.50;5068107;28;1987;-60
2021/09/15 07:01:08;;;;;;;;;;;;;;;19.86;71.98;100722.50;5062548;28;1340;-59
2021/09/15 07:03:33;;;;;;;;;;;;;;;19.86;71.94;100722.50;5057526;28;857;-59
2021/09/15 07:05:58;;;;;;;;;;;;;;;19.84;71.47;100725.38;5057327;28;898;-59
2021/09/15 07:08:23;;;;;;;;;;;;;;;19.85;71.70;100724.38;5066514;28;1274;-59
2021/09/15 07:10:48;;;;;;;;;;;;;;;19.85;72.04;100726.22;5076393;28;1573;-59
2021/09/15 07:13:13;;;;;;;;;;;;;;;19.85;72.08;100737.03;5077221;28;898;-60
2021/09/15 07:15:38;;;;;;;;;;;;;;;19.84;71.87;100729.94;5077289;28;865;-59
2021/09/15 07:18:04;;;;;;;;;;;;;;;19.83;71.54;100723.69;5076482;28;822;-59
2021/09/15 07:20:30;;;;;;;;;;;;;;;19.84;71.88;100736.19;5058429;28;1944;-59
2021/09/15 07:22:55;;;;;;;;;;;;;;;19.83;71.59;100736.34;5056996;28;1009;-59
2021/09/15 07:25:20;;;;;;;;;;;;;;;19.83;72.02;100733.66;5056901;28;1009;-59
2021/09/15 07:27:45;;;;;;;;;;;;;;;19.83;72.44;100736.34;5056763;28;890;-59
2021/09/15 07:30:10;;;;;;;;;;;;;;;19.83;71.54;100731.78;5062823;28;1710;-59
2021/09/15 07:32:35;;;;;;;;;;;;;;;19.83;71.26;100739.06;5076885;28;869;-59
2021/09/15 07:35:00;;;;;;;;;;;;;;;19.83;71.88;100744.47;5076834;28;869;-59
2021/09/15 07:37:25;;;;;;;;;;;;;;;19.83;71.70;100744.47;5076723;28;783;-59
2021/09/15 07:39:50;;;;;;;;;;;;;;;19.83;72.26;100749.88;5061694;28;1890;-59
2021/09/15 07:42:15;;;;;;;;;;;;;;;19.83;71.54;100749.88;5056471;28;846;-59
2021/09/15 07:44:41;;;;;;;;;;;;;;;19.83;71.66;100748.00;5056585;28;886;-60
2021/09/15 07:47:06;;;;;;;;;;;;;;;19.83;71.65;100750.72;5056643;28;1080;-59
2021/09/15 07:49:31;;;;;;;;;;;;;;;19.83;71.55;100749.88;5068023;28;1781;-59
2021/09/15 07:51:56;;;;;;;;;;;;;;;19.83;72.72;100755.28;5076448;28;1344;-59
2021/09/15 07:54:21;;;;;;;;;;;;;;;19.83;71.87;100756.13;5076455;28;814;-59
2021/09/15 07:56:46;;;;;;;;;;;;;;;19.83;71.45;100764.25;5076225;28;842;-59
2021/09/15 07:59:11;;;;;;;;;;;;;;;19.83;71.75;100755.28;5064288;28;1993;-59
2021/09/15 08:01:36;;;;;;;;;;;;;;;19.84;71.60;100751.56;5056178;28;1116;-59
2021/09/15 08:04:02;;;;;;;;;;;;;;;19.84;71.27;100754.28;5056403;28;1009;-59
2021/09/15 08:06:27;;;;;;;;;;;;;;;19.84;71.88;100746.16;5056136;28;831;-59
2021/09/15 08:08:52;;;;;;;;;;;;;;;19.84;71.81;100748.88;5056573;28;1620;-59
2021/09/15 08:11:18;;;;;;;;;;;;;;;19.84;72.20;100741.59;5055962;28;1049;-60
2021/09/15 08:13:43;;;;;;;;;;;;;;;19.84;72.16;100747.00;5055953;28;811;-60
2021/09/15 08:16:08;;;;;;;;;;;;;;;19.84;72.19;100736.19;5056147;28;819;-59
2021/09/15 08:18:33;;;;;;;;;;;;;;;19.86;71.88;100738.72;5040649;28;1902;-59
2021/09/15 08:20:58;;;;;;;;;;;;;;;19.86;71.59;100730.63;5055849;28;799;-59
2021/09/15 08:23:23;;;;;;;;;;;;;;;19.86;71.75;100734.19;5055954;28;974;-59
2021/09/15 08:25:48;;;;;;;;;;;;;;;19.86;72.19;100731.47;5055703;28;747;-59
2021/09/15 08:28:13;;;;;;;;;;;;;;;19.87;71.46;100729.63;5055748;28;1620;-59
2021/09/15 08:30:38;;;;;;;;;;;;;;;19.86;71.83;100720.66;5055321;28;807;-59
2021/09/15 08:33:04;;;;;;;;;;;;;;;19.87;71.92;100721.50;5055588;28;877;-59
2021/09/15 08:35:29;;;;;;;;;;;;;;;19.87;71.49;100718.78;5055424;28;1005;-60
2021/09/15 08:37:54;;;;;;;;;;;;;;;19.87;71.63;100718.78;5068739;28;1718;-59
2021/09/15 08:40:19;;;;;;;;;;;;;;;19.89;71.30;100722.16;5069396;28;1894;-59
2021/09/15 08:42:44;;;;;;;;;;;;;;;19.88;71.72;100721.34;5075298;28;1076;-60
2021/09/15 08:45:09;;;;;;;;;;;;;;;19.88;71.94;100726.75;5075185;28;993;-59
2021/09/15 08:47:34;;;;;;;;;;;;;;;19.90;71.88;100726.56;5064667;28;1625;-59
2021/09/15 08:49:59;;;;;;;;;;;;;;;19.89;71.46;100720.31;5055305;28;1012;-59
2021/09/15 08:52:24;;;;;;;;;;;;;;;19.89;72.17;100714.88;5060297;28;1464;-59
2021/09/15 08:54:49;;;;;;;;;;;;;;;19.90;71.42;100723.84;5068590;28;1660;-60
2021/09/15 08:57:14;;;;;;;;;;;;;;;19.90;71.18;100718.44;5067711;28;1782;-60
2021/09/15 08:59:39;;;;;;;;;;;;;;;19.89;71.76;100720.31;5073351;28;1967;-60
2021/09/15 09:02:04;;;;;;;;;;;;;;;19.90;71.54;100724.69;5075455;28;1083;-59
2021/09/15 09:04:30;;;;;;;;;;;;;;;19.90;71.31;100724.69;5074793;28;1846;-59
2021/09/15 09:06:55;;;;;;;;;;;;;;;19.90;71.44;100732.81;5073947;28;1711;-59
2021/09/15 09:09:20;;;;;;;;;;;;;;;19.91;71.48;100744.47;5062253;28;1861;-59
2021/09/15 09:11:47;;;;;;;;;;;;;;;19.90;71.63;100740.09;5067588;28;1840;-58
2021/09/15 09:14:12;;;;;;;;;;;;;;;19.90;71.66;100745.50;5074322;28;1738;-58
2021/09/15 09:16:37;;;;;;;;;;;;;;;19.91;71.62;100748.03;5074157;28;1750;-59
2021/09/15 09:19:02;;;;;;;;;;;;;;;19.90;71.34;100751.75;5074460;28;1959;-59
2021/09/15 09:21:28;;;;;;;;;;;;;;;19.91;71.42;100752.59;5075176;28;1200;-59
2021/09/15 09:23:53;;;;;;;;;;;;;;;19.90;71.24;100751.75;5074280;28;1654;-60
2021/09/15 09:26:18;;;;;;;;;;;;;;;19.92;71.13;100757.00;5074463;28;1924;-59
2021/09/15 09:28:44;;;;;;;;;;;;;;;19.91;71.33;100750.75;5074269;28;2163;-59
2021/09/15 09:31:09;;;;;;;;;;;;;;;19.92;71.72;100751.59;5074822;28;2238;-59
2021/09/15 09:33:34;;;;;;;;;;;;;;;19.92;71.54;100771.38;5072579;28;1808;-59
2021/09/15 09:36:01;;;;;;;;;;;;;;;19.91;70.88;100768.81;5074782;28;1001;-59
2021/09/15 09:38:26;;;;;;;;;;;;;;;19.92;71.43;100762.41;5069355;28;1674;-59
2021/09/15 09:40:51;;;;;;;;;;;;;;;19.91;71.45;100761.56;5058159;28;1965;-59
2021/09/15 09:43:16;;;;;;;;;;;;;;;19.92;71.05;100754.28;5061990;28;1682;-59
2021/09/15 09:45:41;;;;;;;;;;;;;;;19.93;71.82;100758.69;5071060;28;1417;-59
2021/09/15 09:48:06;;;;;;;;;;;;;;;19.93;71.00;100761.41;5058027;28;1426;-59
2021/09/15 09:50:32;;;;;;;;;;;;;;;19.93;71.42;100762.25;5073100;28;1805;-59
2021/09/15 09:52:59;;;;;;;;;;;;;;;19.95;71.44;100762.09;5066812;28;1353;-59
2021/09/15 09:55:24;;;;;;;;;;;;;;;19.96;71.45;100756.53;5055875;28;1706;-59
2021/09/15 09:57:49;;;;;;;;;;;;;;;19.98;71.16;100754.50;5058789;28;1413;-59
2021/09/15 10:00:14;;;;;;;;;;;;;;;19.98;71.72;100751.81;5074235;28;1969;-59
2021/09/15 10:02:39;;;;;;;;;;;;;;;19.99;71.87;100749.94;5070996;28;1971;-59
2021/09/15 10:05:04;;;;;;;;;;;;;;;20.00;71.55;100752.50;5064628;28;1600;-59
2021/09/15 10:07:29;;;;;;;;;;;;;;;20.01;72.03;100758.75;5070925;28;2277;-59
2021/09/15 10:09:54;;;;;;;;;;;;;;;20.03;71.81;100763.00;5074746;28;917;-59
2021/09/15 10:12:19;;;;;;;;;;;;;;;20.02;71.78;100760.44;5073787;28;1898;-59
2021/09/15 10:14:44;;;;;;;;;;;;;;;20.01;71.50;100764.16;5066505;28;1844;-59
2021/09/15 10:17:09;;;;;;;;;;;;;;;20.00;71.87;100773.28;5064884;28;2056;-59
2021/09/15 10:19:34;;;;;;;;;;;;;;;20.00;72.56;100770.56;5062473;28;1955;-59
2021/09/15 10:22:00;;;;;;;;;;;;;;;20.00;71.81;100770.56;5063192;28;1500;-59
2021/09/15 10:24:25;;;;;;;;;;;;;;;19.99;71.60;100769.72;5062329;28;1692;-59
2021/09/15 10:26:50;;;;;;;;;;;;;;;19.99;72.51;100760.75;5059419;28;1464;-60
2021/09/15 10:29:15;;;;;;;;;;;;;;;20.00;72.12;100767.88;5054832;28;910;-59
2021/09/15 10:31:40;;;;;;;;;;;;;;;20.01;71.99;100769.56;5057572;28;1787;-59
2021/09/15 10:34:06;;;;;;;;;;;;;;;20.00;71.94;100774.13;5070732;28;1813;-60
2021/09/15 10:36:31;;;;;;;;;;;;;;;20.01;71.62;100777.69;5067404;28;1524;-60
2021/09/15 10:38:56;;;;;;;;;;;;;;;20.03;71.88;100783.78;5074263;28;1886;-60
2021/09/15 10:41:21;;;;;;;;;;;;;;;20.03;71.77;100783.78;5073687;28;1632;-60
2021/09/15 10:43:46;;;;;;;;;;;;;;;20.03;72.02;100778.38;5072765;28;1711;-59
2021/09/15 10:46:11;;;;;;;;;;;;;;;20.03;71.54;100789.19;5056242;28;636;-60
2021/09/15 10:48:36;;;;;;;;;;;;;;;20.03;71.50;100778.38;5074168;28;980;-59
2021/09/15 10:51:01;;;;;;;;;;;;;;;20.04;71.55;100778.22;5073880;28;905;-60
2021/09/15 10:53:26;;;;;;;;;;;;;;;20.03;71.28;100772.97;5070610;28;1445;-60
2021/09/15 10:55:51;;;;;;;;;;;;;;;20.03;71.19;100779.22;5077450;28;1016;-60
2021/09/15 10:58:16;;;;;;;;;;;;;;;20.04;71.40;100786.31;5074263;28;1579;-60
2021/09/15 11:00:41;;;;;;;;;;;;;;;20.04;71.17;100786.31;5067103;28;1909;-59
2021/09/15 11:03:06;;;;;;;;;;;;;;;20.04;71.79;100785.47;5065654;28;1690;-60
2021/09/15 11:05:32;;;;;;;;;;;;;;;20.04;70.69;100780.91;5065012;28;1426;-60
2021/09/15 11:07:57;;;;;;;;;;;;;;;20.05;71.34;100779.06;5070292;28;1705;-60
2021/09/15 11:10:22;;;;;;;;;;;;;;;20.06;70.56;100783.47;5077252;28;870;-60
2021/09/15 11:12:47;;;;;;;;;;;;;;;20.07;70.98;100774.31;5065210;28;1702;-60
2021/09/15 11:15:12;;;;;;;;;;;;;;;20.07;70.39;100769.75;5069209;28;1642;-60
2021/09/15 11:17:37;;;;;;;;;;;;;;;20.08;71.11;100768.72;5054544;28;1618;-60
2021/09/15 11:20:02;;;;;;;;;;;;;;;20.10;70.71;100771.28;5064418;28;1981;-60
2021/09/15 11:22:27;;;;;;;;;;;;;;;20.10;70.32;100776.69;5065279;28;1364;-60
2021/09/15 11:24:53;;;;;;;;;;;;;;;20.11;71.19;100779.25;5075129;28;1783;-60
2021/09/15 11:27:18;;;;;;;;;;;;;;;20.13;70.88;100780.94;5069691;28;1287;-60
2021/09/15 11:29:44;;;;;;;;;;;;;;;20.12;70.43;100777.38;5057099;28;1537;-60
2021/09/15 11:32:09;;;;;;;;;;;;;;;20.13;70.40;100779.06;5062779;28;1689;-60
2021/09/15 11:34:34;;;;;;;;;;;;;;;20.13;70.84;100784.50;5076136;28;1614;-60
2021/09/15 11:36:59;;;;;;;;;;;;;;;20.15;70.40;100784.31;5076891;28;1052;-59
2021/09/15 11:39:24;;;;;;;;;;;;;;;20.14;70.64;100788.88;5075243;28;1951;-60
2021/09/15 11:41:49;;;;;;;;;;;;;;;20.16;70.24;100791.44;5072240;28;1381;-60
2021/09/15 11:44:14;;;;;;;;;;;;;;;20.15;70.33;100785.19;5060410;28;1741;-60
2021/09/15 11:46:39;;;;;;;;;;;;;;;20.16;70.34;100789.59;5063585;28;1772;-60
2021/09/15 11:49:05;;;;;;;;;;;;;;;20.16;70.07;100797.69;5072488;28;1784;-60
2021/09/15 11:51:30;;;;;;;;;;;;;;;20.15;70.19;100798.72;5075431;28;1671;-60
2021/09/15 11:53:59;;;;;;;;;;;;;;;20.15;70.41;100804.13;5059009;28;1587;-61
2021/09/15 11:56:31;;;;;;;;;;;;;;;20.15;70.03;100798.72;5069253;28;1392;-60
2021/09/15 11:58:56;;;;;;;;;;;;;;;20.15;70.07;100796.00;5056836;28;1962;-60
2021/09/15 12:01:22;;;;;;;;;;;;;;;20.14;70.49;100807.84;5065093;28;1700;-60
2021/09/15 12:03:47;;;;;;;;;;;;;;;20.14;70.43;100805.13;5075782;28;1685;-60
2021/09/15 12:06:12;;;;;;;;;;;;;;;20.14;70.45;100813.25;5063438;28;1702;-60
2021/09/15 12:08:37;;;;;;;;;;;;;;;20.14;70.39;100807.84;5070009;28;1824;-60
2021/09/15 12:11:02;;;;;;;;;;;;;;;20.14;69.92;100802.41;5062670;28;1504;-59
2021/09/15 12:13:27;;;;;;;;;;;;;;;20.15;69.61;100800.56;5066962;28;1730;-60
2021/09/15 12:15:52;;;;;;;;;;;;;;;20.15;69.46;100800.56;5065883;28;1619;-60
2021/09/15 12:18:20;;;;;;;;;;;;;;;20.15;69.69;100806.81;5063903;28;1584;-60
2021/09/15 12:20:47;;;;;;;;;;;;;;;20.15;70.49;100804.13;5066885;28;1893;-60
2021/09/15 12:23:13;;;;;;;;;;;;;;;20.15;69.99;100806.81;5067739;28;1619;-60
2021/09/15 12:25:38;;;;;;;;;;;;;;;20.15;69.83;100804.13;5073826;28;1563;-60
2021/09/15 12:28:03;;;;;;;;;;;;;;;20.15;69.88;100809.53;5070046;28;1425;-60
2021/09/15 12:30:28;;;;;;;;;;;;;;;20.15;69.71;100805.97;5055806;28;869;-61
2021/09/15 12:32:53;;;;;;;;;;;;;;;20.15;69.63;100804.13;5059295;28;1630;-60
2021/09/15 12:35:19;;;;;;;;;;;;;;;20.16;69.37;100816.63;5056495;28;1691;-60
2021/09/15 12:37:44;;;;;;;;;;;;;;;20.16;69.78;100808.53;5071403;28;1604;-60
2021/09/15 12:40:09;;;;;;;;;;;;;;;20.17;70.12;100817.50;5075422;28;1949;-60
2021/09/15 12:42:34;;;;;;;;;;;;;;;20.16;69.76;100813.94;5068550;28;1471;-61
2021/09/15 12:44:59;;;;;;;;;;;;;;;20.15;70.33;100812.22;5074059;28;1680;-60
2021/09/15 12:47:24;;;;;;;;;;;;;;;20.14;70.27;100813.25;5062264;28;1757;-60